sensor_id;sensor_type;location;lat;lon;timestamp;P1;durP1;ratioP1;P2;durP2;ratioP2
76194;SDS011;64964;48.694;21.206;2023-08-01T00:02:03;3.40;;;2.80;;
76194;SDS011;64964;48.694;21.206;2023-08-01T00:04:29;3.30;;;2.87;;
76194;SDS011;64964;48.694;21.206;2023-08-01T00:06:54;3.28;;;2.83;;
76194;SDS011;64964;48.694;21.206;2023-08-01T00:09:20;4.13;;;2.97;;
76194;SDS011;64964;48.694;21.206;2023-08-01T00:11:46;3.53;;;2.77;;
76194;SDS011;64964;48.694;21.206;2023-08-01T00:14:11;3.38;;;2.80;;
76194;SDS011;64964;48.694;21.206;2023-08-01T00:16:36;5.07;;;2.87;;
76194;SDS011;64964;48.694;21.206;2023-08-01T00:19:02;3.63;;;2.90;;
76194;SDS011;64964;48.694;21.206;2023-08-01T00:21:27;4.17;;;2.70;;
76194;SDS011;64964;48.694;21.206;2023-08-01T00:23:52;4.30;;;3.10;;
76194;SDS011;64964;48.694;21.206;2023-08-01T00:26:18;4.93;;;3.07;;
76194;SDS011;64964;48.694;21.206;2023-08-01T00:28:43;4.37;;;2.70;;
76194;SDS011;64964;48.694;21.206;2023-08-01T00:31:08;2.90;;;2.60;;
76194;SDS011;64964;48.694;21.206;2023-08-01T00:33:34;3.23;;;2.90;;
76194;SDS011;64964;48.694;21.206;2023-08-01T00:35:59;6.25;;;3.00;;
76194;SDS011;64964;48.694;21.206;2023-08-01T00:38:25;3.40;;;3.10;;
76194;SDS011;64964;48.694;21.206;2023-08-01T00:40:50;3.22;;;2.90;;
76194;SDS011;64964;48.694;21.206;2023-08-01T00:43:16;5.47;;;3.10;;
76194;SDS011;64964;48.694;21.206;2023-08-01T00:45:41;3.50;;;2.73;;
76194;SDS011;64964;48.694;21.206;2023-08-01T00:48:07;5.90;;;3.07;;
76194;SDS011;64964;48.694;21.206;2023-08-01T00:50:33;3.20;;;2.87;;
76194;SDS011;64964;48.694;21.206;2023-08-01T00:52:58;3.33;;;3.03;;
76194;SDS011;64964;48.694;21.206;2023-08-01T00:55:24;4.43;;;2.63;;
76194;SDS011;64964;48.694;21.206;2023-08-01T00:57:52;4.18;;;3.15;;
76194;SDS011;64964;48.694;21.206;2023-08-01T01:00:18;4.93;;;2.70;;
76194;SDS011;64964;48.694;21.206;2023-08-01T01:02:43;3.55;;;2.53;;
76194;SDS011;64964;48.694;21.206;2023-08-01T01:05:09;3.93;;;2.90;;
76194;SDS011;64964;48.694;21.206;2023-08-01T01:07:35;3.20;;;2.90;;
76194;SDS011;64964;48.694;21.206;2023-08-01T01:10:02;3.90;;;3.15;;
76194;SDS011;64964;48.694;21.206;2023-08-01T01:12:27;3.30;;;2.90;;
76194;SDS011;64964;48.694;21.206;2023-08-01T01:14:52;4.20;;;3.00;;
76194;SDS011;64964;48.694;21.206;2023-08-01T01:17:18;4.80;;;3.10;;
76194;SDS011;64964;48.694;21.206;2023-08-01T01:19:43;3.67;;;3.10;;
76194;SDS011;64964;48.694;21.206;2023-08-01T01:22:09;5.13;;;3.40;;
76194;SDS011;64964;48.694;21.206;2023-08-01T01:24:36;5.20;;;2.88;;
76194;SDS011;64964;48.694;21.206;2023-08-01T01:27:03;3.53;;;3.23;;
76194;SDS011;64964;48.694;21.206;2023-08-01T01:29:30;3.88;;;3.03;;
76194;SDS011;64964;48.694;21.206;2023-08-01T01:31:57;5.30;;;2.95;;
76194;SDS011;64964;48.694;21.206;2023-08-01T01:34:25;5.53;;;3.25;;
76194;SDS011;64964;48.694;21.206;2023-08-01T01:36:51;4.05;;;3.28;;
76194;SDS011;64964;48.694;21.206;2023-08-01T01:39:16;5.80;;;3.03;;
76194;SDS011;64964;48.694;21.206;2023-08-01T01:41:41;3.83;;;2.90;;
76194;SDS011;64964;48.694;21.206;2023-08-01T01:44:07;3.43;;;3.13;;
76194;SDS011;64964;48.694;21.206;2023-08-01T01:46:32;4.83;;;3.10;;
76194;SDS011;64964;48.694;21.206;2023-08-01T01:48:57;4.13;;;2.95;;
76194;SDS011;64964;48.694;21.206;2023-08-01T01:51:25;4.20;;;3.20;;
76194;SDS011;64964;48.694;21.206;2023-08-01T01:53:51;4.50;;;2.85;;
76194;SDS011;64964;48.694;21.206;2023-08-01T01:56:16;3.20;;;2.80;;
76194;SDS011;64964;48.694;21.206;2023-08-01T01:58:42;5.50;;;3.17;;
76194;SDS011;64964;48.694;21.206;2023-08-01T02:01:07;4.23;;;3.03;;
76194;SDS011;64964;48.694;21.206;2023-08-01T02:03:32;3.28;;;2.88;;
76194;SDS011;64964;48.694;21.206;2023-08-01T02:05:58;3.30;;;2.90;;
76194;SDS011;64964;48.694;21.206;2023-08-01T02:08:23;4.77;;;3.20;;
76194;SDS011;64964;48.694;21.206;2023-08-01T02:10:48;4.53;;;2.80;;
76194;SDS011;64964;48.694;21.206;2023-08-01T02:13:14;3.83;;;3.20;;
76194;SDS011;64964;48.694;21.206;2023-08-01T02:15:39;3.13;;;2.83;;
76194;SDS011;64964;48.694;21.206;2023-08-01T02:18:05;4.27;;;3.10;;
76194;SDS011;64964;48.694;21.206;2023-08-01T02:20:30;3.50;;;2.73;;
76194;SDS011;64964;48.694;21.206;2023-08-01T02:22:56;3.42;;;2.90;;
76194;SDS011;64964;48.694;21.206;2023-08-01T02:25:22;3.25;;;2.95;;
76194;SDS011;64964;48.694;21.206;2023-08-01T02:27:47;5.03;;;3.00;;
76194;SDS011;64964;48.694;21.206;2023-08-01T02:30:12;3.57;;;3.23;;
76194;SDS011;64964;48.694;21.206;2023-08-01T02:32:38;3.67;;;2.80;;
76194;SDS011;64964;48.694;21.206;2023-08-01T02:35:03;3.57;;;3.00;;
76194;SDS011;64964;48.694;21.206;2023-08-01T02:37:29;3.92;;;2.85;;
76194;SDS011;64964;48.694;21.206;2023-08-01T02:39:54;4.30;;;3.00;;
76194;SDS011;64964;48.694;21.206;2023-08-01T02:42:20;4.57;;;3.03;;
76194;SDS011;64964;48.694;21.206;2023-08-01T02:44:45;4.10;;;3.27;;
76194;SDS011;64964;48.694;21.206;2023-08-01T02:47:10;4.20;;;3.00;;
76194;SDS011;64964;48.694;21.206;2023-08-01T02:49:36;5.00;;;3.10;;
76194;SDS011;64964;48.694;21.206;2023-08-01T02:52:01;5.87;;;3.00;;
76194;SDS011;64964;48.694;21.206;2023-08-01T02:54:26;5.90;;;3.10;;
76194;SDS011;64964;48.694;21.206;2023-08-01T02:56:52;8.10;;;3.40;;
76194;SDS011;64964;48.694;21.206;2023-08-01T02:59:17;5.20;;;3.43;;
76194;SDS011;64964;48.694;21.206;2023-08-01T03:01:45;4.28;;;2.85;;
76194;SDS011;64964;48.694;21.206;2023-08-01T03:04:11;4.90;;;3.10;;
76194;SDS011;64964;48.694;21.206;2023-08-01T03:06:39;6.35;;;3.45;;
76194;SDS011;64964;48.694;21.206;2023-08-01T03:09:05;4.90;;;3.10;;
76194;SDS011;64964;48.694;21.206;2023-08-01T03:11:33;6.60;;;3.42;;
76194;SDS011;64964;48.694;21.206;2023-08-01T03:14:00;4.18;;;3.58;;
76194;SDS011;64964;48.694;21.206;2023-08-01T03:16:26;4.27;;;3.50;;
76194;SDS011;64964;48.694;21.206;2023-08-01T03:18:51;6.30;;;3.72;;
76194;SDS011;64964;48.694;21.206;2023-08-01T03:21:17;7.60;;;4.00;;
76194;SDS011;64964;48.694;21.206;2023-08-01T03:23:42;5.63;;;3.33;;
76194;SDS011;64964;48.694;21.206;2023-08-01T03:26:08;5.40;;;3.27;;
76194;SDS011;64964;48.694;21.206;2023-08-01T03:28:33;4.13;;;3.17;;
76194;SDS011;64964;48.694;21.206;2023-08-01T03:30:58;6.47;;;3.67;;
76194;SDS011;64964;48.694;21.206;2023-08-01T03:33:24;6.63;;;3.57;;
76194;SDS011;64964;48.694;21.206;2023-08-01T03:35:49;7.80;;;3.90;;
76194;SDS011;64964;48.694;21.206;2023-08-01T03:38:14;5.10;;;3.87;;
76194;SDS011;64964;48.694;21.206;2023-08-01T03:40:40;6.45;;;3.55;;
76194;SDS011;64964;48.694;21.206;2023-08-01T03:43:06;7.77;;;3.90;;
76194;SDS011;64964;48.694;21.206;2023-08-01T03:45:31;7.05;;;3.97;;
76194;SDS011;64964;48.694;21.206;2023-08-01T03:47:58;4.63;;;3.53;;
76194;SDS011;64964;48.694;21.206;2023-08-01T03:50:23;4.93;;;3.40;;
76194;SDS011;64964;48.694;21.206;2023-08-01T03:52:49;6.63;;;3.97;;
76194;SDS011;64964;48.694;21.206;2023-08-01T03:55:14;7.03;;;4.53;;
76194;SDS011;64964;48.694;21.206;2023-08-01T03:57:40;6.10;;;4.22;;
76194;SDS011;64964;48.694;21.206;2023-08-01T04:00:05;13.00;;;5.13;;
76194;SDS011;64964;48.694;21.206;2023-08-01T04:02:31;11.98;;;6.05;;
76194;SDS011;64964;48.694;21.206;2023-08-01T04:04:57;10.83;;;5.93;;
76194;SDS011;64964;48.694;21.206;2023-08-01T04:07:22;10.23;;;5.60;;
76194;SDS011;64964;48.694;21.206;2023-08-01T04:09:47;15.23;;;5.90;;
76194;SDS011;64964;48.694;21.206;2023-08-01T04:12:13;12.30;;;5.93;;
76194;SDS011;64964;48.694;21.206;2023-08-01T04:14:38;17.67;;;6.40;;
76194;SDS011;64964;48.694;21.206;2023-08-01T04:17:04;12.60;;;5.40;;
76194;SDS011;64964;48.694;21.206;2023-08-01T04:19:29;12.50;;;5.67;;
76194;SDS011;64964;48.694;21.206;2023-08-01T04:21:55;13.80;;;5.57;;
76194;SDS011;64964;48.694;21.206;2023-08-01T04:24:20;11.15;;;5.85;;
76194;SDS011;64964;48.694;21.206;2023-08-01T04:26:45;7.17;;;4.77;;
76194;SDS011;64964;48.694;21.206;2023-08-01T04:29:11;11.50;;;4.77;;
76194;SDS011;64964;48.694;21.206;2023-08-01T04:31:40;8.95;;;4.80;;
76194;SDS011;64964;48.694;21.206;2023-08-01T04:34:05;9.33;;;4.90;;
76194;SDS011;64964;48.694;21.206;2023-08-01T04:36:31;10.77;;;5.97;;
76194;SDS011;64964;48.694;21.206;2023-08-01T04:38:56;12.50;;;6.20;;
76194;SDS011;64964;48.694;21.206;2023-08-01T04:41:21;12.43;;;6.33;;
76194;SDS011;64964;48.694;21.206;2023-08-01T04:43:47;13.40;;;5.30;;
76194;SDS011;64964;48.694;21.206;2023-08-01T04:46:12;10.43;;;5.10;;
76194;SDS011;64964;48.694;21.206;2023-08-01T04:48:37;9.60;;;5.50;;
76194;SDS011;64964;48.694;21.206;2023-08-01T04:51:03;10.93;;;4.60;;
76194;SDS011;64964;48.694;21.206;2023-08-01T04:53:28;12.60;;;5.80;;
76194;SDS011;64964;48.694;21.206;2023-08-01T04:55:53;9.00;;;5.30;;
76194;SDS011;64964;48.694;21.206;2023-08-01T04:58:19;10.60;;;5.20;;
76194;SDS011;64964;48.694;21.206;2023-08-01T05:00:44;12.60;;;5.57;;
76194;SDS011;64964;48.694;21.206;2023-08-01T05:03:09;15.70;;;7.13;;
76194;SDS011;64964;48.694;21.206;2023-08-01T05:05:35;13.17;;;6.00;;
76194;SDS011;64964;48.694;21.206;2023-08-01T05:08:00;10.53;;;5.57;;
76194;SDS011;64964;48.694;21.206;2023-08-01T05:10:25;12.33;;;5.80;;
76194;SDS011;64964;48.694;21.206;2023-08-01T05:12:51;24.67;;;9.80;;
76194;SDS011;64964;48.694;21.206;2023-08-01T05:15:16;30.25;;;10.25;;
76194;SDS011;64964;48.694;21.206;2023-08-01T05:17:42;38.33;;;11.60;;
76194;SDS011;64964;48.694;21.206;2023-08-01T05:20:07;33.27;;;11.83;;
76194;SDS011;64964;48.694;21.206;2023-08-01T05:22:33;27.60;;;9.80;;
76194;SDS011;64964;48.694;21.206;2023-08-01T05:24:59;28.27;;;9.90;;
76194;SDS011;64964;48.694;21.206;2023-08-01T05:27:25;15.33;;;6.87;;
76194;SDS011;64964;48.694;21.206;2023-08-01T05:29:50;17.70;;;6.10;;
76194;SDS011;64964;48.694;21.206;2023-08-01T05:32:15;11.97;;;5.87;;
76194;SDS011;64964;48.694;21.206;2023-08-01T05:34:41;15.60;;;5.30;;
76194;SDS011;64964;48.694;21.206;2023-08-01T05:37:06;13.18;;;5.57;;
76194;SDS011;64964;48.694;21.206;2023-08-01T05:39:31;11.33;;;4.60;;
76194;SDS011;64964;48.694;21.206;2023-08-01T05:41:57;10.23;;;4.93;;
76194;SDS011;64964;48.694;21.206;2023-08-01T05:44:22;10.90;;;5.17;;
76194;SDS011;64964;48.694;21.206;2023-08-01T05:46:48;15.80;;;6.07;;
76194;SDS011;64964;48.694;21.206;2023-08-01T05:49:13;19.85;;;8.40;;
76194;SDS011;64964;48.694;21.206;2023-08-01T05:51:38;22.13;;;8.57;;
76194;SDS011;64964;48.694;21.206;2023-08-01T05:54:05;20.17;;;8.90;;
76194;SDS011;64964;48.694;21.206;2023-08-01T05:56:30;21.97;;;8.53;;
76194;SDS011;64964;48.694;21.206;2023-08-01T05:58:55;14.67;;;7.70;;
76194;SDS011;64964;48.694;21.206;2023-08-01T06:01:21;18.30;;;8.80;;
76194;SDS011;64964;48.694;21.206;2023-08-01T06:03:47;17.50;;;8.57;;
76194;SDS011;64964;48.694;21.206;2023-08-01T06:06:12;15.07;;;7.70;;
76194;SDS011;64964;48.694;21.206;2023-08-01T06:08:37;17.02;;;7.25;;
76194;SDS011;64964;48.694;21.206;2023-08-01T06:11:03;17.57;;;6.50;;
76194;SDS011;64964;48.694;21.206;2023-08-01T06:13:28;16.53;;;7.00;;
76194;SDS011;64964;48.694;21.206;2023-08-01T06:15:54;14.13;;;6.80;;
76194;SDS011;64964;48.694;21.206;2023-08-01T06:18:19;16.67;;;7.67;;
76194;SDS011;64964;48.694;21.206;2023-08-01T06:20:44;15.65;;;7.35;;
76194;SDS011;64964;48.694;21.206;2023-08-01T06:23:10;18.30;;;6.97;;
76194;SDS011;64964;48.694;21.206;2023-08-01T06:25:35;18.00;;;8.00;;
76194;SDS011;64964;48.694;21.206;2023-08-01T06:28:00;16.20;;;6.87;;
76194;SDS011;64964;48.694;21.206;2023-08-01T06:30:26;14.55;;;6.70;;
76194;SDS011;64964;48.694;21.206;2023-08-01T06:32:51;17.03;;;6.93;;
76194;SDS011;64964;48.694;21.206;2023-08-01T06:35:16;13.20;;;6.23;;
76194;SDS011;64964;48.694;21.206;2023-08-01T06:37:42;16.63;;;6.97;;
76194;SDS011;64964;48.694;21.206;2023-08-01T06:40:07;15.90;;;6.77;;
76194;SDS011;64964;48.694;21.206;2023-08-01T06:42:33;14.65;;;6.53;;
76194;SDS011;64964;48.694;21.206;2023-08-01T06:44:58;10.83;;;5.23;;
76194;SDS011;64964;48.694;21.206;2023-08-01T06:47:24;9.10;;;5.03;;
76194;SDS011;64964;48.694;21.206;2023-08-01T06:49:49;8.00;;;4.80;;
76194;SDS011;64964;48.694;21.206;2023-08-01T06:52:14;11.80;;;5.30;;
76194;SDS011;64964;48.694;21.206;2023-08-01T06:54:40;10.13;;;4.90;;
76194;SDS011;64964;48.694;21.206;2023-08-01T06:57:06;6.93;;;4.77;;
76194;SDS011;64964;48.694;21.206;2023-08-01T06:59:31;11.60;;;4.80;;
76194;SDS011;64964;48.694;21.206;2023-08-01T07:01:57;9.87;;;4.53;;
76194;SDS011;64964;48.694;21.206;2023-08-01T07:04:22;9.37;;;4.53;;
76194;SDS011;64964;48.694;21.206;2023-08-01T07:06:48;11.53;;;4.80;;
76194;SDS011;64964;48.694;21.206;2023-08-01T07:09:14;9.80;;;4.80;;
76194;SDS011;64964;48.694;21.206;2023-08-01T07:11:40;10.23;;;4.40;;
76194;SDS011;64964;48.694;21.206;2023-08-01T07:14:05;7.57;;;3.70;;
76194;SDS011;64964;48.694;21.206;2023-08-01T07:16:30;5.97;;;3.13;;
76194;SDS011;64964;48.694;21.206;2023-08-01T07:18:57;7.87;;;3.50;;
76194;SDS011;64964;48.694;21.206;2023-08-01T07:21:25;7.22;;;3.40;;
76194;SDS011;64964;48.694;21.206;2023-08-01T07:23:51;5.90;;;3.23;;
76194;SDS011;64964;48.694;21.206;2023-08-01T07:26:16;7.70;;;3.30;;
76194;SDS011;64964;48.694;21.206;2023-08-01T07:28:42;7.23;;;3.40;;
76194;SDS011;64964;48.694;21.206;2023-08-01T07:31:07;5.15;;;2.70;;
76194;SDS011;64964;48.694;21.206;2023-08-01T07:33:33;3.70;;;2.70;;
76194;SDS011;64964;48.694;21.206;2023-08-01T07:35:59;6.78;;;2.97;;
76194;SDS011;64964;48.694;21.206;2023-08-01T07:38:24;9.80;;;4.87;;
76194;SDS011;64964;48.694;21.206;2023-08-01T07:40:51;5.10;;;3.20;;
76194;SDS011;64964;48.694;21.206;2023-08-01T07:43:17;5.80;;;3.40;;
76194;SDS011;64964;48.694;21.206;2023-08-01T07:45:43;4.97;;;2.80;;
76194;SDS011;64964;48.694;21.206;2023-08-01T07:48:09;5.07;;;3.00;;
76194;SDS011;64964;48.694;21.206;2023-08-01T07:50:34;4.00;;;2.90;;
76194;SDS011;64964;48.694;21.206;2023-08-01T07:52:59;5.30;;;2.70;;
76194;SDS011;64964;48.694;21.206;2023-08-01T07:55:25;3.77;;;2.77;;
76194;SDS011;64964;48.694;21.206;2023-08-01T07:57:50;3.73;;;2.80;;
76194;SDS011;64964;48.694;21.206;2023-08-01T08:00:16;4.60;;;2.80;;
76194;SDS011;64964;48.694;21.206;2023-08-01T08:02:42;4.18;;;2.60;;
76194;SDS011;64964;48.694;21.206;2023-08-01T08:05:08;3.78;;;2.53;;
76194;SDS011;64964;48.694;21.206;2023-08-01T08:07:36;7.57;;;3.20;;
76194;SDS011;64964;48.694;21.206;2023-08-01T08:10:02;5.77;;;2.60;;
76194;SDS011;64964;48.694;21.206;2023-08-01T08:12:27;3.70;;;2.67;;
76194;SDS011;64964;48.694;21.206;2023-08-01T08:14:53;5.60;;;2.50;;
76194;SDS011;64964;48.694;21.206;2023-08-01T08:17:18;4.43;;;2.90;;
76194;SDS011;64964;48.694;21.206;2023-08-01T08:19:44;3.60;;;2.53;;
76194;SDS011;64964;48.694;21.206;2023-08-01T08:22:09;6.13;;;2.33;;
76194;SDS011;64964;48.694;21.206;2023-08-01T08:24:35;4.63;;;2.63;;
76194;SDS011;64964;48.694;21.206;2023-08-01T08:27:00;7.23;;;2.93;;
76194;SDS011;64964;48.694;21.206;2023-08-01T08:29:25;3.90;;;2.20;;
76194;SDS011;64964;48.694;21.206;2023-08-01T08:31:51;4.47;;;2.30;;
76194;SDS011;64964;48.694;21.206;2023-08-01T08:34:16;7.43;;;2.60;;
76194;SDS011;64964;48.694;21.206;2023-08-01T08:36:41;4.93;;;2.70;;
76194;SDS011;64964;48.694;21.206;2023-08-01T08:39:07;6.63;;;2.40;;
76194;SDS011;64964;48.694;21.206;2023-08-01T08:41:54;3.22;;;2.10;;
76194;SDS011;64964;48.694;21.206;2023-08-01T08:44:19;3.20;;;2.13;;
76194;SDS011;64964;48.694;21.206;2023-08-01T08:46:47;3.13;;;1.88;;
76194;SDS011;64964;48.694;21.206;2023-08-01T08:49:15;3.63;;;2.25;;
76194;SDS011;64964;48.694;21.206;2023-08-01T08:51:42;3.07;;;2.03;;
76194;SDS011;64964;48.694;21.206;2023-08-01T08:54:09;2.97;;;2.03;;
76194;SDS011;64964;48.694;21.206;2023-08-01T08:56:35;5.50;;;2.22;;
76194;SDS011;64964;48.694;21.206;2023-08-01T08:59:01;4.88;;;2.38;;
76194;SDS011;64964;48.694;21.206;2023-08-01T09:01:26;3.80;;;2.20;;
76194;SDS011;64964;48.694;21.206;2023-08-01T09:03:52;4.07;;;2.20;;
76194;SDS011;64964;48.694;21.206;2023-08-01T09:06:24;5.40;;;2.40;;
76194;SDS011;64964;48.694;21.206;2023-08-01T09:09:00;5.77;;;2.00;;
76194;SDS011;64964;48.694;21.206;2023-08-01T09:11:50;2.33;;;2.00;;
76194;SDS011;64964;48.694;21.206;2023-08-01T09:14:17;5.00;;;2.15;;
76194;SDS011;64964;48.694;21.206;2023-08-01T09:16:43;5.47;;;2.05;;
76194;SDS011;64964;48.694;21.206;2023-08-01T09:19:10;4.03;;;1.83;;
76194;SDS011;64964;48.694;21.206;2023-08-01T09:21:38;3.17;;;2.10;;
76194;SDS011;64964;48.694;21.206;2023-08-01T09:24:07;3.88;;;1.92;;
76194;SDS011;64964;48.694;21.206;2023-08-01T09:26:34;5.95;;;2.25;;
76194;SDS011;64964;48.694;21.206;2023-08-01T09:28:59;3.27;;;2.20;;
76194;SDS011;64964;48.694;21.206;2023-08-01T09:31:32;3.53;;;2.00;;
76194;SDS011;64964;48.694;21.206;2023-08-01T09:33:59;2.88;;;2.17;;
76194;SDS011;64964;48.694;21.206;2023-08-01T09:36:25;5.50;;;2.40;;
76194;SDS011;64964;48.694;21.206;2023-08-01T09:38:51;2.67;;;2.10;;
76194;SDS011;64964;48.694;21.206;2023-08-01T09:41:17;5.15;;;2.45;;
76194;SDS011;64964;48.694;21.206;2023-08-01T09:43:44;3.60;;;2.40;;
76194;SDS011;64964;48.694;21.206;2023-08-01T09:46:11;6.20;;;2.40;;
76194;SDS011;64964;48.694;21.206;2023-08-01T09:48:37;2.95;;;2.50;;
76194;SDS011;64964;48.694;21.206;2023-08-01T09:51:24;2.63;;;2.40;;
76194;SDS011;64964;48.694;21.206;2023-08-01T09:53:50;4.18;;;2.30;;
76194;SDS011;64964;48.694;21.206;2023-08-01T09:56:23;5.47;;;3.13;;
76194;SDS011;64964;48.694;21.206;2023-08-01T09:58:51;2.50;;;2.30;;
76194;SDS011;64964;48.694;21.206;2023-08-01T10:01:19;5.60;;;2.70;;
76194;SDS011;64964;48.694;21.206;2023-08-01T10:03:46;3.30;;;2.30;;
76194;SDS011;64964;48.694;21.206;2023-08-01T10:06:14;3.60;;;2.67;;
76194;SDS011;64964;48.694;21.206;2023-08-01T10:08:43;5.95;;;2.45;;
76194;SDS011;64964;48.694;21.206;2023-08-01T10:11:09;3.95;;;2.95;;
76194;SDS011;64964;48.694;21.206;2023-08-01T10:13:36;7.07;;;2.85;;
76194;SDS011;64964;48.694;21.206;2023-08-01T10:16:02;3.07;;;2.60;;
76194;SDS011;64964;48.694;21.206;2023-08-01T10:18:28;4.30;;;2.58;;
76194;SDS011;64964;48.694;21.206;2023-08-01T10:20:55;4.85;;;2.90;;
76194;SDS011;64964;48.694;21.206;2023-08-01T10:23:21;6.38;;;2.90;;
76194;SDS011;64964;48.694;21.206;2023-08-01T10:25:48;3.67;;;2.38;;
76194;SDS011;64964;48.694;21.206;2023-08-01T10:28:14;3.27;;;2.30;;
76194;SDS011;64964;48.694;21.206;2023-08-01T10:30:39;7.63;;;3.00;;
76194;SDS011;64964;48.694;21.206;2023-08-01T10:33:04;6.37;;;2.97;;
76194;SDS011;64964;48.694;21.206;2023-08-01T10:35:36;7.53;;;2.60;;
76194;SDS011;64964;48.694;21.206;2023-08-01T10:38:06;4.78;;;2.50;;
76194;SDS011;64964;48.694;21.206;2023-08-01T10:40:40;6.30;;;2.90;;
76194;SDS011;64964;48.694;21.206;2023-08-01T10:43:28;4.05;;;2.50;;
76194;SDS011;64964;48.694;21.206;2023-08-01T10:46:02;4.23;;;2.40;;
76194;SDS011;64964;48.694;21.206;2023-08-01T10:48:28;5.47;;;2.60;;
76194;SDS011;64964;48.694;21.206;2023-08-01T10:50:54;2.15;;;1.95;;
76194;SDS011;64964;48.694;21.206;2023-08-01T10:53:20;3.00;;;2.20;;
76194;SDS011;64964;48.694;21.206;2023-08-01T10:55:46;5.90;;;2.40;;
76194;SDS011;64964;48.694;21.206;2023-08-01T10:58:12;4.70;;;2.00;;
76194;SDS011;64964;48.694;21.206;2023-08-01T11:00:37;2.73;;;2.37;;
76194;SDS011;64964;48.694;21.206;2023-08-01T11:03:03;3.03;;;2.20;;
76194;SDS011;64964;48.694;21.206;2023-08-01T11:05:28;3.87;;;2.70;;
76194;SDS011;64964;48.694;21.206;2023-08-01T11:07:55;3.63;;;2.50;;
76194;SDS011;64964;48.694;21.206;2023-08-01T11:10:21;3.70;;;2.37;;
76194;SDS011;64964;48.694;21.206;2023-08-01T11:12:48;3.25;;;2.28;;
76194;SDS011;64964;48.694;21.206;2023-08-01T11:15:14;4.20;;;2.25;;
76194;SDS011;64964;48.694;21.206;2023-08-01T11:17:40;2.40;;;2.20;;
76194;SDS011;64964;48.694;21.206;2023-08-01T11:20:08;4.10;;;2.50;;
76194;SDS011;64964;48.694;21.206;2023-08-01T11:22:35;3.63;;;2.20;;
76194;SDS011;64964;48.694;21.206;2023-08-01T11:25:01;4.53;;;2.42;;
76194;SDS011;64964;48.694;21.206;2023-08-01T11:27:27;2.90;;;2.50;;
76194;SDS011;64964;48.694;21.206;2023-08-01T11:29:53;5.13;;;2.80;;
76194;SDS011;64964;48.694;21.206;2023-08-01T11:32:19;4.05;;;2.45;;
76194;SDS011;64964;48.694;21.206;2023-08-01T11:34:48;4.33;;;2.27;;
76194;SDS011;64964;48.694;21.206;2023-08-01T11:37:14;5.15;;;2.50;;
76194;SDS011;64964;48.694;21.206;2023-08-01T11:39:41;5.28;;;2.10;;
76194;SDS011;64964;48.694;21.206;2023-08-01T11:42:06;4.93;;;2.25;;
76194;SDS011;64964;48.694;21.206;2023-08-01T11:44:32;5.03;;;2.10;;
76194;SDS011;64964;48.694;21.206;2023-08-01T11:46:57;5.47;;;2.30;;
76194;SDS011;64964;48.694;21.206;2023-08-01T11:49:23;4.05;;;2.17;;
76194;SDS011;64964;48.694;21.206;2023-08-01T11:51:48;2.63;;;2.00;;
76194;SDS011;64964;48.694;21.206;2023-08-01T11:54:14;3.30;;;2.30;;
76194;SDS011;64964;48.694;21.206;2023-08-01T11:56:41;6.37;;;2.30;;
76194;SDS011;64964;48.694;21.206;2023-08-01T11:59:14;5.63;;;2.10;;
76194;SDS011;64964;48.694;21.206;2023-08-01T12:01:42;4.43;;;2.22;;
76194;SDS011;64964;48.694;21.206;2023-08-01T12:04:08;4.10;;;1.85;;
76194;SDS011;64964;48.694;21.206;2023-08-01T12:06:34;3.97;;;1.93;;
76194;SDS011;64964;48.694;21.206;2023-08-01T12:09:12;10.27;;;3.33;;
76194;SDS011;64964;48.694;21.206;2023-08-01T12:11:39;2.90;;;1.88;;
76194;SDS011;64964;48.694;21.206;2023-08-01T12:14:09;3.85;;;2.00;;
76194;SDS011;64964;48.694;21.206;2023-08-01T12:16:40;2.92;;;2.42;;
76194;SDS011;64964;48.694;21.206;2023-08-01T12:19:10;4.00;;;2.25;;
76194;SDS011;64964;48.694;21.206;2023-08-01T12:21:41;4.50;;;2.40;;
76194;SDS011;64964;48.694;21.206;2023-08-01T12:24:06;3.87;;;2.27;;
76194;SDS011;64964;48.694;21.206;2023-08-01T12:26:32;4.10;;;2.03;;
76194;SDS011;64964;48.694;21.206;2023-08-01T12:28:57;5.63;;;2.20;;
76194;SDS011;64964;48.694;21.206;2023-08-01T12:31:22;2.87;;;2.10;;
76194;SDS011;64964;48.694;21.206;2023-08-01T12:33:48;3.83;;;2.10;;
76194;SDS011;64964;48.694;21.206;2023-08-01T12:36:14;6.13;;;2.10;;
76194;SDS011;64964;48.694;21.206;2023-08-01T12:38:40;2.88;;;2.00;;
76194;SDS011;64964;48.694;21.206;2023-08-01T12:41:06;2.67;;;1.90;;
76194;SDS011;64964;48.694;21.206;2023-08-01T12:43:31;3.80;;;1.80;;
76194;SDS011;64964;48.694;21.206;2023-08-01T12:45:57;3.00;;;1.90;;
76194;SDS011;64964;48.694;21.206;2023-08-01T12:48:23;4.13;;;1.80;;
76194;SDS011;64964;48.694;21.206;2023-08-01T12:50:49;2.92;;;1.80;;
76194;SDS011;64964;48.694;21.206;2023-08-01T12:53:15;3.25;;;1.90;;
76194;SDS011;64964;48.694;21.206;2023-08-01T12:55:44;4.73;;;2.00;;
76194;SDS011;64964;48.694;21.206;2023-08-01T12:58:10;2.47;;;1.77;;
76194;SDS011;64964;48.694;21.206;2023-08-01T13:00:36;3.92;;;2.00;;
76194;SDS011;64964;48.694;21.206;2023-08-01T13:03:01;4.43;;;2.00;;
76194;SDS011;64964;48.694;21.206;2023-08-01T13:05:27;3.43;;;1.90;;
76194;SDS011;64964;48.694;21.206;2023-08-01T13:07:52;3.45;;;1.90;;
76194;SDS011;64964;48.694;21.206;2023-08-01T13:10:18;4.70;;;2.00;;
76194;SDS011;64964;48.694;21.206;2023-08-01T13:12:43;5.07;;;2.23;;
76194;SDS011;64964;48.694;21.206;2023-08-01T13:15:08;5.93;;;2.30;;
76194;SDS011;64964;48.694;21.206;2023-08-01T13:17:34;4.55;;;1.92;;
76194;SDS011;64964;48.694;21.206;2023-08-01T13:19:59;4.93;;;2.40;;
76194;SDS011;64964;48.694;21.206;2023-08-01T13:22:25;3.33;;;2.25;;
76194;SDS011;64964;48.694;21.206;2023-08-01T13:24:50;4.67;;;2.60;;
76194;SDS011;64964;48.694;21.206;2023-08-01T13:27:15;2.13;;;1.93;;
76194;SDS011;64964;48.694;21.206;2023-08-01T13:29:41;3.93;;;2.07;;
76194;SDS011;64964;48.694;21.206;2023-08-01T13:32:06;2.83;;;1.87;;
76194;SDS011;64964;48.694;21.206;2023-08-01T13:34:32;5.50;;;2.08;;
76194;SDS011;64964;48.694;21.206;2023-08-01T13:36:57;4.17;;;2.20;;
76194;SDS011;64964;48.694;21.206;2023-08-01T13:39:23;4.40;;;2.40;;
76194;SDS011;64964;48.694;21.206;2023-08-01T13:41:48;4.32;;;1.90;;
76194;SDS011;64964;48.694;21.206;2023-08-01T13:44:13;6.67;;;2.40;;
76194;SDS011;64964;48.694;21.206;2023-08-01T13:46:39;6.80;;;2.40;;
76194;SDS011;64964;48.694;21.206;2023-08-01T13:49:04;5.87;;;2.50;;
76194;SDS011;64964;48.694;21.206;2023-08-01T13:51:33;3.33;;;2.27;;
76194;SDS011;64964;48.694;21.206;2023-08-01T13:53:59;5.83;;;2.63;;
76194;SDS011;64964;48.694;21.206;2023-08-01T13:56:24;3.05;;;1.65;;
76194;SDS011;64964;48.694;21.206;2023-08-01T13:58:50;5.43;;;2.03;;
76194;SDS011;64964;48.694;21.206;2023-08-01T14:01:16;4.00;;;2.08;;
76194;SDS011;64964;48.694;21.206;2023-08-01T14:03:43;6.90;;;2.10;;
76194;SDS011;64964;48.694;21.206;2023-08-01T14:06:13;4.50;;;2.00;;
76194;SDS011;64964;48.694;21.206;2023-08-01T14:08:39;2.13;;;1.70;;
76194;SDS011;64964;48.694;21.206;2023-08-01T14:11:06;4.68;;;1.88;;
76194;SDS011;64964;48.694;21.206;2023-08-01T14:13:33;4.00;;;2.30;;
76194;SDS011;64964;48.694;21.206;2023-08-01T14:15:59;5.20;;;2.17;;
76194;SDS011;64964;48.694;21.206;2023-08-01T14:18:26;3.63;;;1.90;;
76194;SDS011;64964;48.694;21.206;2023-08-01T14:20:52;6.60;;;2.90;;
76194;SDS011;64964;48.694;21.206;2023-08-01T14:23:18;6.40;;;2.97;;
76194;SDS011;64964;48.694;21.206;2023-08-01T14:25:43;5.45;;;2.20;;